Detall de PIREP

Printer-friendly versionPDF version

[2014/01/02 07:17:00]
Flight IATA:CT2110
Pilot Number:041
Company ICAO:CAT
Aircraft Type:F70/E
PAX:53
Aircraft Registration:DA
Departing Airport: LEVC
Destination Airport: LEST
Alternate Airport:LEMD
Online: VATSIM
Route:CENTA A33 PRADO UN733 FORNO
Flight Level:FL330
No Slew and time accel
No pause
Crash detect
Detect pilot in Cockpit between each 30 and 45 minutes
07:17 Zero fuel Weight: 69551 Lbs, Fuel Weight: 10469 Lbs
07:17 VATSIM:LEVC 020700Z 26011KT 9999 FEW030 SCT060 15/09 Q1015 NOSIG
07:17 VATSIM:LEST 020700Z 25007KT 190V290 7000 SCT008 BKN013 BKN031 11/09 Q1008 NOSIG
07:18 VOICE CATALONIAN
07:36 Parking Brakes off
07:44 Take-off
07:44 Take off Weight: 79521 Lbs
07:44 Wind: 263º @ 010 Knots Heading: 294º
07:44 POS N39º 29´ 23´´ W000º 28´ 58´´
07:44 Gear Up: 158 Knots
07:44 Flaps:1 at 158 Knots
07:45 Flaps:0 at 160 Knots
07:59 Wind:298º@087 Knots Heading: 299º Ground Speed: 330 Knots Altitude 29002 ft
08:03 TOC
08:03 Fuel Weight: 7869 Lb
08:14 Wind:309º@103 Knots Heading: 299º Ground Speed: 307 Knots Altitude 33044 ft
08:29 Wind:297º@122 Knots Heading: 296º Ground Speed: 288 Knots Altitude 32979 ft
08:39 TOD
08:39 Fuel Weight: 5458 Lb
08:44 Wind:278º@087 Knots Heading: 299º Ground Speed: 302 Knots Altitude 22411 ft
08:59 Wind:240º@024 Knots Heading: 297º Ground Speed: 187 Knots Altitude 5892 ft
09:14 Wind:220º@011 Knots Heading: 294º Ground Speed: 254 Knots Altitude 3953 ft
09:18 Flaps:1 at 203 Knots
09:18 Flaps:2 at 169 Knots
09:20 Flaps:3 at 148 Knots
09:20 Flaps:2 at 142 Knots
09:20 Flaps:3 at 142 Knots
09:20 Gear Down: 141 Knots
09:20 Flaps:2 at 141 Knots
09:20 Flaps:3 at 140 Knots
09:21 Flaps:2 at 144 Knots
09:21 Flaps:3 at 143 Knots
09:21 Flaps:4 at 144 Knots
09:24 TouchDown:Rate -342 ft/min Speed: 106 Knots
09:24 VATSIM:LEST 020900Z 22010KT 190V250 2500 DZ BR SCT005 BKN010 09/09 Q1009 NOSIG
09:25 Land
09:25 Wind:208º@009 Knots
09:25 Heading: 164º
09:25 Flight Duration: 01:41
09:25 Landing Weight: 72742 Lbs
09:25 POS N42º 54´ 03´´ W008º 25´ 00´´
09:26 Parking brakes on
09:26 Block to Block Duration: 01:50
09:26 Final Fuel: 3126 Lbls
09:26 Spent Fuel: 7343 Lbls
09:26 Flight Length: 445 NM
09:26 TOD Land Length: 169 NM

Exportar CSV

Powered by Drupal - Modified by Danger4k